sensor_id;sensor_type;location;lat;lon;timestamp;P1;durP1;ratioP1;P2;durP2;ratioP2
60908;SDS011;46780;48.128;-1.704;2023-08-31T00:01:15;15.40;;;4.32;;
60908;SDS011;46780;48.128;-1.704;2023-08-31T00:03:42;18.52;;;4.38;;
60908;SDS011;46780;48.128;-1.704;2023-08-31T00:06:08;16.35;;;4.32;;
60908;SDS011;46780;48.128;-1.704;2023-08-31T00:08:35;15.68;;;4.10;;
60908;SDS011;46780;48.128;-1.704;2023-08-31T00:11:03;16.00;;;4.22;;
60908;SDS011;46780;48.128;-1.704;2023-08-31T00:13:29;18.08;;;4.00;;
60908;SDS011;46780;48.128;-1.704;2023-08-31T00:15:56;16.55;;;4.20;;
60908;SDS011;46780;48.128;-1.704;2023-08-31T00:18:23;16.75;;;4.15;;
60908;SDS011;46780;48.128;-1.704;2023-08-31T00:20:50;14.30;;;3.75;;
60908;SDS011;46780;48.128;-1.704;2023-08-31T00:23:17;14.90;;;3.90;;
60908;SDS011;46780;48.128;-1.704;2023-08-31T00:25:43;15.38;;;4.00;;
60908;SDS011;46780;48.128;-1.704;2023-08-31T00:28:11;19.52;;;4.10;;
60908;SDS011;46780;48.128;-1.704;2023-08-31T00:30:38;14.38;;;3.67;;
60908;SDS011;46780;48.128;-1.704;2023-08-31T00:33:04;17.92;;;3.90;;
60908;SDS011;46780;48.128;-1.704;2023-08-31T00:35:32;16.90;;;3.58;;
60908;SDS011;46780;48.128;-1.704;2023-08-31T00:37:59;18.98;;;4.28;;
60908;SDS011;46780;48.128;-1.704;2023-08-31T00:40:26;15.75;;;3.50;;
60908;SDS011;46780;48.128;-1.704;2023-08-31T00:42:52;14.63;;;3.75;;
60908;SDS011;46780;48.128;-1.704;2023-08-31T00:45:20;16.17;;;3.60;;
60908;SDS011;46780;48.128;-1.704;2023-08-31T00:47:47;14.70;;;3.45;;
60908;SDS011;46780;48.128;-1.704;2023-08-31T00:50:14;18.38;;;3.88;;
60908;SDS011;46780;48.128;-1.704;2023-08-31T00:52:41;16.23;;;4.00;;
60908;SDS011;46780;48.128;-1.704;2023-08-31T00:55:08;15.10;;;3.30;;
60908;SDS011;46780;48.128;-1.704;2023-08-31T00:57:35;14.27;;;4.15;;
60908;SDS011;46780;48.128;-1.704;2023-08-31T01:00:01;16.83;;;3.35;;
60908;SDS011;46780;48.128;-1.704;2023-08-31T01:02:30;15.13;;;3.75;;
60908;SDS011;46780;48.128;-1.704;2023-08-31T01:05:03;16.80;;;3.85;;
60908;SDS011;46780;48.128;-1.704;2023-08-31T01:07:44;15.38;;;3.70;;
60908;SDS011;46780;48.128;-1.704;2023-08-31T01:10:18;13.93;;;3.60;;
60908;SDS011;46780;48.128;-1.704;2023-08-31T01:12:52;16.95;;;3.63;;
60908;SDS011;46780;48.128;-1.704;2023-08-31T01:15:24;17.02;;;3.85;;
60908;SDS011;46780;48.128;-1.704;2023-08-31T01:17:54;15.27;;;3.58;;
60908;SDS011;46780;48.128;-1.704;2023-08-31T01:20:26;13.63;;;3.53;;
60908;SDS011;46780;48.128;-1.704;2023-08-31T01:23:00;13.18;;;3.50;;
60908;SDS011;46780;48.128;-1.704;2023-08-31T01:25:31;15.07;;;3.47;;
60908;SDS011;46780;48.128;-1.704;2023-08-31T01:27:59;21.85;;;3.88;;
60908;SDS011;46780;48.128;-1.704;2023-08-31T01:30:29;15.77;;;3.65;;
60908;SDS011;46780;48.128;-1.704;2023-08-31T01:32:55;14.00;;;3.47;;
60908;SDS011;46780;48.128;-1.704;2023-08-31T01:35:22;16.55;;;3.75;;
60908;SDS011;46780;48.128;-1.704;2023-08-31T01:37:50;13.57;;;3.30;;
60908;SDS011;46780;48.128;-1.704;2023-08-31T01:40:20;12.77;;;3.55;;
60908;SDS011;46780;48.128;-1.704;2023-08-31T01:42:52;16.50;;;3.58;;
60908;SDS011;46780;48.128;-1.704;2023-08-31T01:45:20;18.10;;;3.17;;
60908;SDS011;46780;48.128;-1.704;2023-08-31T01:47:48;16.98;;;3.28;;
60908;SDS011;46780;48.128;-1.704;2023-08-31T01:50:15;11.40;;;3.28;;
60908;SDS011;46780;48.128;-1.704;2023-08-31T01:52:41;15.10;;;3.60;;
60908;SDS011;46780;48.128;-1.704;2023-08-31T01:55:08;16.63;;;3.63;;
60908;SDS011;46780;48.128;-1.704;2023-08-31T01:57:34;14.18;;;3.20;;
60908;SDS011;46780;48.128;-1.704;2023-08-31T02:00:02;16.25;;;3.50;;
60908;SDS011;46780;48.128;-1.704;2023-08-31T02:02:29;17.38;;;3.67;;
60908;SDS011;46780;48.128;-1.704;2023-08-31T02:04:55;13.75;;;3.08;;
60908;SDS011;46780;48.128;-1.704;2023-08-31T02:07:22;16.38;;;3.30;;
60908;SDS011;46780;48.128;-1.704;2023-08-31T02:09:48;16.05;;;3.53;;
60908;SDS011;46780;48.128;-1.704;2023-08-31T02:12:15;18.33;;;3.58;;
60908;SDS011;46780;48.128;-1.704;2023-08-31T02:14:41;13.07;;;3.20;;
60908;SDS011;46780;48.128;-1.704;2023-08-31T02:17:09;15.65;;;3.38;;
60908;SDS011;46780;48.128;-1.704;2023-08-31T02:19:35;13.07;;;3.20;;
60908;SDS011;46780;48.128;-1.704;2023-08-31T02:22:02;13.88;;;3.38;;
60908;SDS011;46780;48.128;-1.704;2023-08-31T02:24:28;13.68;;;3.20;;
60908;SDS011;46780;48.128;-1.704;2023-08-31T02:26:55;14.38;;;3.38;;
60908;SDS011;46780;48.128;-1.704;2023-08-31T02:29:22;12.70;;;3.38;;
60908;SDS011;46780;48.128;-1.704;2023-08-31T02:31:48;14.52;;;3.17;;
60908;SDS011;46780;48.128;-1.704;2023-08-31T02:34:16;15.43;;;3.40;;
60908;SDS011;46780;48.128;-1.704;2023-08-31T02:36:43;14.82;;;3.42;;
60908;SDS011;46780;48.128;-1.704;2023-08-31T02:39:09;15.80;;;3.40;;
60908;SDS011;46780;48.128;-1.704;2023-08-31T02:41:36;17.48;;;2.97;;
60908;SDS011;46780;48.128;-1.704;2023-08-31T02:44:03;18.58;;;3.33;;
60908;SDS011;46780;48.128;-1.704;2023-08-31T02:46:29;13.13;;;3.05;;
60908;SDS011;46780;48.128;-1.704;2023-08-31T02:48:56;15.35;;;3.80;;
60908;SDS011;46780;48.128;-1.704;2023-08-31T02:51:23;14.40;;;3.17;;
60908;SDS011;46780;48.128;-1.704;2023-08-31T02:53:50;13.57;;;3.15;;
60908;SDS011;46780;48.128;-1.704;2023-08-31T02:56:16;13.02;;;3.15;;
60908;SDS011;46780;48.128;-1.704;2023-08-31T02:58:43;17.83;;;3.60;;
60908;SDS011;46780;48.128;-1.704;2023-08-31T03:01:09;18.80;;;3.40;;
60908;SDS011;46780;48.128;-1.704;2023-08-31T03:03:37;13.52;;;3.17;;
60908;SDS011;46780;48.128;-1.704;2023-08-31T03:06:03;15.77;;;3.40;;
60908;SDS011;46780;48.128;-1.704;2023-08-31T03:08:32;12.43;;;3.30;;
60908;SDS011;46780;48.128;-1.704;2023-08-31T03:10:59;15.38;;;3.42;;
60908;SDS011;46780;48.128;-1.704;2023-08-31T03:13:25;17.45;;;3.67;;
60908;SDS011;46780;48.128;-1.704;2023-08-31T03:15:52;16.05;;;3.20;;
60908;SDS011;46780;48.128;-1.704;2023-08-31T03:18:18;9.75;;;3.10;;
60908;SDS011;46780;48.128;-1.704;2023-08-31T03:20:45;14.27;;;3.30;;
60908;SDS011;46780;48.128;-1.704;2023-08-31T03:23:11;13.52;;;3.20;;
60908;SDS011;46780;48.128;-1.704;2023-08-31T03:25:39;19.10;;;3.60;;
60908;SDS011;46780;48.128;-1.704;2023-08-31T03:28:05;13.10;;;3.30;;
60908;SDS011;46780;48.128;-1.704;2023-08-31T03:30:32;16.77;;;3.10;;
60908;SDS011;46780;48.128;-1.704;2023-08-31T03:32:58;12.57;;;3.20;;
60908;SDS011;46780;48.128;-1.704;2023-08-31T03:35:25;14.25;;;3.35;;
60908;SDS011;46780;48.128;-1.704;2023-08-31T03:37:51;13.88;;;3.00;;
60908;SDS011;46780;48.128;-1.704;2023-08-31T03:40:18;11.82;;;3.40;;
60908;SDS011;46780;48.128;-1.704;2023-08-31T03:42:46;13.50;;;3.17;;
60908;SDS011;46780;48.128;-1.704;2023-08-31T03:45:12;12.90;;;3.20;;
60908;SDS011;46780;48.128;-1.704;2023-08-31T03:47:39;18.50;;;3.20;;
60908;SDS011;46780;48.128;-1.704;2023-08-31T03:50:05;14.00;;;3.33;;
60908;SDS011;46780;48.128;-1.704;2023-08-31T03:52:32;15.23;;;3.10;;
60908;SDS011;46780;48.128;-1.704;2023-08-31T03:54:59;14.05;;;3.15;;
60908;SDS011;46780;48.128;-1.704;2023-08-31T03:57:25;17.58;;;3.50;;
60908;SDS011;46780;48.128;-1.704;2023-08-31T03:59:53;16.35;;;3.63;;
60908;SDS011;46780;48.128;-1.704;2023-08-31T04:02:20;13.95;;;3.33;;
60908;SDS011;46780;48.128;-1.704;2023-08-31T04:04:46;11.77;;;2.90;;
60908;SDS011;46780;48.128;-1.704;2023-08-31T04:07:12;14.35;;;3.28;;
60908;SDS011;46780;48.128;-1.704;2023-08-31T04:09:39;14.02;;;3.03;;
60908;SDS011;46780;48.128;-1.704;2023-08-31T04:12:05;13.05;;;3.20;;
60908;SDS011;46780;48.128;-1.704;2023-08-31T04:14:32;12.85;;;3.17;;
60908;SDS011;46780;48.128;-1.704;2023-08-31T04:17:00;15.90;;;3.03;;
60908;SDS011;46780;48.128;-1.704;2023-08-31T04:19:26;13.50;;;3.30;;
60908;SDS011;46780;48.128;-1.704;2023-08-31T04:21:53;14.65;;;3.40;;
60908;SDS011;46780;48.128;-1.704;2023-08-31T04:24:19;13.65;;;3.42;;
60908;SDS011;46780;48.128;-1.704;2023-08-31T04:26:46;15.68;;;3.08;;
60908;SDS011;46780;48.128;-1.704;2023-08-31T04:29:12;15.15;;;3.30;;
60908;SDS011;46780;48.128;-1.704;2023-08-31T04:31:38;16.15;;;3.22;;
60908;SDS011;46780;48.128;-1.704;2023-08-31T04:34:06;17.50;;;3.22;;
60908;SDS011;46780;48.128;-1.704;2023-08-31T04:36:33;13.63;;;3.13;;
60908;SDS011;46780;48.128;-1.704;2023-08-31T04:38:59;13.77;;;3.20;;
60908;SDS011;46780;48.128;-1.704;2023-08-31T04:41:26;15.13;;;3.17;;
60908;SDS011;46780;48.128;-1.704;2023-08-31T04:43:52;14.43;;;3.40;;
60908;SDS011;46780;48.128;-1.704;2023-08-31T04:46:19;13.95;;;3.40;;
60908;SDS011;46780;48.128;-1.704;2023-08-31T04:48:45;14.80;;;3.08;;
60908;SDS011;46780;48.128;-1.704;2023-08-31T04:54:09;17.27;;;3.38;;
60908;SDS011;46780;48.128;-1.704;2023-08-31T04:56:35;11.93;;;3.30;;
60908;SDS011;46780;48.128;-1.704;2023-08-31T04:59:02;16.67;;;3.63;;
60908;SDS011;46780;48.128;-1.704;2023-08-31T05:01:28;13.23;;;3.25;;
60908;SDS011;46780;48.128;-1.704;2023-08-31T05:03:55;16.75;;;3.47;;
60908;SDS011;46780;48.128;-1.704;2023-08-31T05:06:22;15.55;;;3.35;;
60908;SDS011;46780;48.128;-1.704;2023-08-31T05:08:48;12.13;;;3.13;;
60908;SDS011;46780;48.128;-1.704;2023-08-31T05:11:16;14.85;;;3.80;;
60908;SDS011;46780;48.128;-1.704;2023-08-31T05:13:43;13.23;;;3.33;;
60908;SDS011;46780;48.128;-1.704;2023-08-31T05:16:09;13.35;;;3.50;;
60908;SDS011;46780;48.128;-1.704;2023-08-31T05:18:35;13.05;;;3.13;;
60908;SDS011;46780;48.128;-1.704;2023-08-31T05:21:02;16.40;;;3.15;;
60908;SDS011;46780;48.128;-1.704;2023-08-31T05:23:28;13.48;;;3.53;;
60908;SDS011;46780;48.128;-1.704;2023-08-31T05:25:55;15.63;;;3.47;;
60908;SDS011;46780;48.128;-1.704;2023-08-31T05:28:23;13.65;;;3.45;;
60908;SDS011;46780;48.128;-1.704;2023-08-31T05:30:50;15.02;;;3.45;;
60908;SDS011;46780;48.128;-1.704;2023-08-31T05:33:17;15.98;;;3.25;;
60908;SDS011;46780;48.128;-1.704;2023-08-31T05:35:44;16.85;;;3.50;;
60908;SDS011;46780;48.128;-1.704;2023-08-31T05:38:10;16.40;;;3.70;;
60908;SDS011;46780;48.128;-1.704;2023-08-31T05:40:37;15.32;;;3.35;;
60908;SDS011;46780;48.128;-1.704;2023-08-31T05:43:04;14.32;;;3.50;;
60908;SDS011;46780;48.128;-1.704;2023-08-31T05:45:32;14.25;;;3.70;;
60908;SDS011;46780;48.128;-1.704;2023-08-31T05:47:59;13.80;;;3.53;;
60908;SDS011;46780;48.128;-1.704;2023-08-31T05:50:26;15.52;;;3.40;;
60908;SDS011;46780;48.128;-1.704;2023-08-31T05:52:53;13.95;;;3.60;;
60908;SDS011;46780;48.128;-1.704;2023-08-31T05:55:19;13.93;;;3.67;;
60908;SDS011;46780;48.128;-1.704;2023-08-31T05:57:46;13.77;;;3.30;;
60908;SDS011;46780;48.128;-1.704;2023-08-31T06:00:12;13.60;;;3.40;;
60908;SDS011;46780;48.128;-1.704;2023-08-31T06:02:40;15.90;;;3.60;;
60908;SDS011;46780;48.128;-1.704;2023-08-31T06:05:07;13.68;;;3.20;;
60908;SDS011;46780;48.128;-1.704;2023-08-31T06:07:35;16.05;;;3.92;;
60908;SDS011;46780;48.128;-1.704;2023-08-31T06:10:01;15.40;;;3.90;;
60908;SDS011;46780;48.128;-1.704;2023-08-31T06:12:28;12.40;;;3.45;;
60908;SDS011;46780;48.128;-1.704;2023-08-31T06:14:54;14.50;;;3.70;;
60908;SDS011;46780;48.128;-1.704;2023-08-31T06:17:21;14.85;;;3.90;;
60908;SDS011;46780;48.128;-1.704;2023-08-31T06:19:49;12.30;;;3.45;;
60908;SDS011;46780;48.128;-1.704;2023-08-31T06:22:15;13.70;;;3.30;;
60908;SDS011;46780;48.128;-1.704;2023-08-31T06:24:41;12.75;;;3.50;;
60908;SDS011;46780;48.128;-1.704;2023-08-31T06:27:08;16.00;;;3.55;;
60908;SDS011;46780;48.128;-1.704;2023-08-31T06:29:34;15.88;;;3.83;;
60908;SDS011;46780;48.128;-1.704;2023-08-31T06:32:01;15.45;;;3.63;;
60908;SDS011;46780;48.128;-1.704;2023-08-31T06:34:27;15.00;;;3.85;;
60908;SDS011;46780;48.128;-1.704;2023-08-31T06:36:55;19.35;;;4.20;;
60908;SDS011;46780;48.128;-1.704;2023-08-31T06:39:21;15.80;;;3.97;;
60908;SDS011;46780;48.128;-1.704;2023-08-31T06:41:48;14.25;;;4.38;;
60908;SDS011;46780;48.128;-1.704;2023-08-31T06:44:14;16.30;;;4.50;;
60908;SDS011;46780;48.128;-1.704;2023-08-31T06:46:41;10.73;;;4.30;;
60908;SDS011;46780;48.128;-1.704;2023-08-31T06:49:07;11.57;;;4.05;;
60908;SDS011;46780;48.128;-1.704;2023-08-31T06:51:34;14.80;;;4.50;;
60908;SDS011;46780;48.128;-1.704;2023-08-31T06:54:01;15.88;;;4.35;;
60908;SDS011;46780;48.128;-1.704;2023-08-31T06:56:28;15.50;;;4.40;;
60908;SDS011;46780;48.128;-1.704;2023-08-31T06:58:55;11.60;;;4.20;;
60908;SDS011;46780;48.128;-1.704;2023-08-31T07:01:21;13.60;;;4.75;;
60908;SDS011;46780;48.128;-1.704;2023-08-31T07:03:47;14.63;;;4.50;;
60908;SDS011;46780;48.128;-1.704;2023-08-31T07:06:14;11.98;;;4.60;;
60908;SDS011;46780;48.128;-1.704;2023-08-31T07:08:40;13.32;;;4.50;;
60908;SDS011;46780;48.128;-1.704;2023-08-31T07:11:08;12.60;;;4.55;;
60908;SDS011;46780;48.128;-1.704;2023-08-31T07:13:35;12.13;;;4.47;;
60908;SDS011;46780;48.128;-1.704;2023-08-31T07:16:01;13.90;;;4.85;;
60908;SDS011;46780;48.128;-1.704;2023-08-31T07:18:27;11.05;;;4.53;;
60908;SDS011;46780;48.128;-1.704;2023-08-31T07:20:54;10.55;;;4.00;;
60908;SDS011;46780;48.128;-1.704;2023-08-31T07:23:21;13.38;;;4.53;;
60908;SDS011;46780;48.128;-1.704;2023-08-31T07:25:47;13.07;;;4.40;;
60908;SDS011;46780;48.128;-1.704;2023-08-31T07:28:15;11.13;;;4.05;;
60908;SDS011;46780;48.128;-1.704;2023-08-31T07:30:42;11.95;;;4.40;;
60908;SDS011;46780;48.128;-1.704;2023-08-31T07:33:08;11.82;;;4.10;;
60908;SDS011;46780;48.128;-1.704;2023-08-31T07:35:35;11.23;;;3.80;;
60908;SDS011;46780;48.128;-1.704;2023-08-31T07:38:01;9.52;;;4.10;;
60908;SDS011;46780;48.128;-1.704;2023-08-31T07:40:28;10.00;;;4.13;;
60908;SDS011;46780;48.128;-1.704;2023-08-31T07:42:54;10.38;;;3.90;;
60908;SDS011;46780;48.128;-1.704;2023-08-31T07:45:22;9.00;;;3.80;;
60908;SDS011;46780;48.128;-1.704;2023-08-31T07:47:49;8.70;;;4.20;;
60908;SDS011;46780;48.128;-1.704;2023-08-31T07:50:15;8.40;;;4.10;;
60908;SDS011;46780;48.128;-1.704;2023-08-31T07:52:41;9.95;;;4.32;;
60908;SDS011;46780;48.128;-1.704;2023-08-31T07:55:08;9.73;;;4.60;;
60908;SDS011;46780;48.128;-1.704;2023-08-31T07:57:34;11.98;;;4.38;;
60908;SDS011;46780;48.128;-1.704;2023-08-31T08:00:01;8.63;;;4.38;;
60908;SDS011;46780;48.128;-1.704;2023-08-31T08:02:29;10.45;;;4.78;;
60908;SDS011;46780;48.128;-1.704;2023-08-31T08:04:56;10.70;;;4.85;;
60908;SDS011;46780;48.128;-1.704;2023-08-31T08:07:22;11.55;;;5.13;;
60908;SDS011;46780;48.128;-1.704;2023-08-31T08:09:49;9.43;;;4.47;;
60908;SDS011;46780;48.128;-1.704;2023-08-31T08:12:15;9.48;;;5.20;;
60908;SDS011;46780;48.128;-1.704;2023-08-31T08:14:41;20.10;;;11.35;;
60908;SDS011;46780;48.128;-1.704;2023-08-31T08:17:08;13.77;;;6.97;;
60908;SDS011;46780;48.128;-1.704;2023-08-31T08:19:36;13.07;;;6.68;;
60908;SDS011;46780;48.128;-1.704;2023-08-31T08:22:02;10.73;;;5.55;;
60908;SDS011;46780;48.128;-1.704;2023-08-31T08:24:29;11.52;;;5.88;;
60908;SDS011;46780;48.128;-1.704;2023-08-31T08:26:55;12.52;;;5.75;;
60908;SDS011;46780;48.128;-1.704;2023-08-31T08:29:27;11.55;;;5.22;;
60908;SDS011;46780;48.128;-1.704;2023-08-31T08:31:54;11.38;;;5.80;;
60908;SDS011;46780;48.128;-1.704;2023-08-31T08:34:20;11.18;;;5.22;;
60908;SDS011;46780;48.128;-1.704;2023-08-31T08:36:48;9.70;;;5.50;;
60908;SDS011;46780;48.128;-1.704;2023-08-31T08:39:14;12.90;;;5.85;;
60908;SDS011;46780;48.128;-1.704;2023-08-31T08:41:41;11.45;;;5.47;;
60908;SDS011;46780;48.128;-1.704;2023-08-31T08:44:08;10.52;;;5.63;;
60908;SDS011;46780;48.128;-1.704;2023-08-31T08:46:35;9.93;;;5.20;;
60908;SDS011;46780;48.128;-1.704;2023-08-31T08:49:02;9.77;;;5.60;;
60908;SDS011;46780;48.128;-1.704;2023-08-31T08:51:30;13.57;;;5.53;;
60908;SDS011;46780;48.128;-1.704;2023-08-31T08:53:58;10.00;;;5.45;;
60908;SDS011;46780;48.128;-1.704;2023-08-31T08:56:25;9.68;;;5.20;;
60908;SDS011;46780;48.128;-1.704;2023-08-31T08:58:51;10.05;;;5.30;;
60908;SDS011;46780;48.128;-1.704;2023-08-31T09:01:18;9.55;;;5.57;;
60908;SDS011;46780;48.128;-1.704;2023-08-31T09:03:45;10.10;;;5.43;;
60908;SDS011;46780;48.128;-1.704;2023-08-31T09:06:11;9.20;;;5.03;;
60908;SDS011;46780;48.128;-1.704;2023-08-31T09:08:38;13.07;;;5.22;;
60908;SDS011;46780;48.128;-1.704;2023-08-31T09:11:08;10.57;;;5.65;;
60908;SDS011;46780;48.128;-1.704;2023-08-31T09:13:45;11.00;;;5.70;;
60908;SDS011;46780;48.128;-1.704;2023-08-31T09:16:13;9.93;;;5.38;;
60908;SDS011;46780;48.128;-1.704;2023-08-31T09:18:49;10.32;;;5.63;;
60908;SDS011;46780;48.128;-1.704;2023-08-31T09:21:16;11.65;;;5.88;;
60908;SDS011;46780;48.128;-1.704;2023-08-31T09:23:45;10.60;;;5.72;;
60908;SDS011;46780;48.128;-1.704;2023-08-31T09:26:15;10.90;;;5.95;;
60908;SDS011;46780;48.128;-1.704;2023-08-31T09:28:41;11.23;;;6.50;;
60908;SDS011;46780;48.128;-1.704;2023-08-31T09:31:08;10.10;;;5.75;;
60908;SDS011;46780;48.128;-1.704;2023-08-31T09:33:34;10.85;;;6.18;;
60908;SDS011;46780;48.128;-1.704;2023-08-31T09:36:01;11.75;;;6.10;;
60908;SDS011;46780;48.128;-1.704;2023-08-31T09:38:28;10.43;;;5.47;;
60908;SDS011;46780;48.128;-1.704;2023-08-31T09:40:58;10.52;;;6.28;;
60908;SDS011;46780;48.128;-1.704;2023-08-31T09:43:31;11.85;;;6.50;;
60908;SDS011;46780;48.128;-1.704;2023-08-31T09:45:57;10.77;;;6.25;;
60908;SDS011;46780;48.128;-1.704;2023-08-31T09:48:25;10.68;;;5.63;;
60908;SDS011;46780;48.128;-1.704;2023-08-31T09:50:52;12.18;;;6.22;;
60908;SDS011;46780;48.128;-1.704;2023-08-31T09:53:20;10.88;;;5.93;;
60908;SDS011;46780;48.128;-1.704;2023-08-31T09:55:49;12.30;;;6.55;;
60908;SDS011;46780;48.128;-1.704;2023-08-31T09:58:17;11.70;;;6.85;;
60908;SDS011;46780;48.128;-1.704;2023-08-31T10:00:47;14.68;;;6.90;;
60908;SDS011;46780;48.128;-1.704;2023-08-31T10:03:15;12.33;;;6.57;;
60908;SDS011;46780;48.128;-1.704;2023-08-31T10:05:43;12.05;;;6.43;;
60908;SDS011;46780;48.128;-1.704;2023-08-31T10:08:09;16.70;;;6.35;;
60908;SDS011;46780;48.128;-1.704;2023-08-31T10:10:37;16.10;;;6.00;;
60908;SDS011;46780;48.128;-1.704;2023-08-31T10:13:05;11.95;;;4.95;;
60908;SDS011;46780;48.128;-1.704;2023-08-31T10:15:32;11.15;;;4.72;;
60908;SDS011;46780;48.128;-1.704;2023-08-31T10:20:45;11.05;;;4.53;;
60908;SDS011;46780;48.128;-1.704;2023-08-31T10:23:12;11.85;;;4.15;;
60908;SDS011;46780;48.128;-1.704;2023-08-31T10:28:28;9.23;;;4.03;;
60908;SDS011;46780;48.128;-1.704;2023-08-31T10:31:01;8.15;;;3.55;;
60908;SDS011;46780;48.128;-1.704;2023-08-31T10:33:32;8.95;;;4.07;;
60908;SDS011;46780;48.128;-1.704;2023-08-31T10:38:26;8.70;;;3.15;;
60908;SDS011;46780;48.128;-1.704;2023-08-31T10:43:45;9.95;;;4.18;;
60908;SDS011;46780;48.128;-1.704;2023-08-31T10:46:16;10.00;;;3.72;;
60908;SDS011;46780;48.128;-1.704;2023-08-31T10:48:51;7.63;;;3.22;;
60908;SDS011;46780;48.128;-1.704;2023-08-31T10:51:21;5.88;;;2.80;;
60908;SDS011;46780;48.128;-1.704;2023-08-31T10:53:52;7.70;;;3.30;;
60908;SDS011;46780;48.128;-1.704;2023-08-31T10:56:29;6.80;;;3.10;;
60908;SDS011;46780;48.128;-1.704;2023-08-31T10:58:57;7.93;;;3.20;;
60908;SDS011;46780;48.128;-1.704;2023-08-31T11:01:50;6.00;;;2.70;;
60908;SDS011;46780;48.128;-1.704;2023-08-31T11:04:19;7.82;;;2.78;;
60908;SDS011;46780;48.128;-1.704;2023-08-31T11:06:46;7.30;;;3.10;;
60908;SDS011;46780;48.128;-1.704;2023-08-31T11:09:18;5.00;;;2.42;;
60908;SDS011;46780;48.128;-1.704;2023-08-31T11:11:47;7.25;;;2.50;;
60908;SDS011;46780;48.128;-1.704;2023-08-31T11:14:14;5.55;;;2.35;;
60908;SDS011;46780;48.128;-1.704;2023-08-31T11:16:40;8.00;;;2.50;;
60908;SDS011;46780;48.128;-1.704;2023-08-31T11:19:07;6.07;;;2.72;;
60908;SDS011;46780;48.128;-1.704;2023-08-31T11:21:37;5.60;;;2.60;;
60908;SDS011;46780;48.128;-1.704;2023-08-31T11:24:03;6.47;;;2.65;;
60908;SDS011;46780;48.128;-1.704;2023-08-31T11:26:31;6.28;;;2.83;;
60908;SDS011;46780;48.128;-1.704;2023-08-31T11:28:58;5.72;;;2.50;;
60908;SDS011;46780;48.128;-1.704;2023-08-31T11:31:25;5.15;;;2.60;;
60908;SDS011;46780;48.128;-1.704;2023-08-31T11:33:52;6.57;;;2.75;;
60908;SDS011;46780;48.128;-1.704;2023-08-31T11:36:20;6.53;;;2.50;;
60908;SDS011;46780;48.128;-1.704;2023-08-31T11:38:48;8.77;;;2.88;;
60908;SDS011;46780;48.128;-1.704;2023-08-31T11:41:15;6.55;;;2.83;;
60908;SDS011;46780;48.128;-1.704;2023-08-31T11:43:41;5.38;;;2.58;;
60908;SDS011;46780;48.128;-1.704;2023-08-31T11:46:08;5.97;;;2.90;;
60908;SDS011;46780;48.128;-1.704;2023-08-31T11:48:35;8.82;;;2.88;;
60908;SDS011;46780;48.128;-1.704;2023-08-31T11:51:02;6.80;;;2.70;;
60908;SDS011;46780;48.128;-1.704;2023-08-31T11:53:29;5.28;;;2.70;;
60908;SDS011;46780;48.128;-1.704;2023-08-31T11:55:56;5.75;;;2.63;;
60908;SDS011;46780;48.128;-1.704;2023-08-31T11:58:23;6.18;;;2.63;;
60908;SDS011;46780;48.128;-1.704;2023-08-31T12:00:55;6.85;;;2.85;;
60908;SDS011;46780;48.128;-1.704;2023-08-31T12:03:22;7.53;;;2.80;;
60908;SDS011;46780;48.128;-1.704;2023-08-31T12:05:51;7.00;;;2.80;;
60908;SDS011;46780;48.128;-1.704;2023-08-31T12:08:23;6.55;;;2.95;;
60908;SDS011;46780;48.128;-1.704;2023-08-31T12:10:50;8.13;;;2.90;;
60908;SDS011;46780;48.128;-1.704;2023-08-31T12:13:18;7.90;;;2.60;;
60908;SDS011;46780;48.128;-1.704;2023-08-31T12:15:44;8.50;;;3.00;;
60908;SDS011;46780;48.128;-1.704;2023-08-31T12:18:11;8.02;;;2.47;;
60908;SDS011;46780;48.128;-1.704;2023-08-31T12:20:45;11.45;;;2.70;;
60908;SDS011;46780;48.128;-1.704;2023-08-31T12:23:12;8.20;;;2.60;;
60908;SDS011;46780;48.128;-1.704;2023-08-31T12:26:05;7.90;;;2.75;;
60908;SDS011;46780;48.128;-1.704;2023-08-31T12:28:41;10.35;;;2.80;;
60908;SDS011;46780;48.128;-1.704;2023-08-31T12:31:11;8.40;;;2.85;;
60908;SDS011;46780;48.128;-1.704;2023-08-31T12:33:37;10.27;;;2.60;;
60908;SDS011;46780;48.128;-1.704;2023-08-31T12:36:04;6.90;;;2.90;;
60908;SDS011;46780;48.128;-1.704;2023-08-31T12:38:30;9.68;;;3.08;;
60908;SDS011;46780;48.128;-1.704;2023-08-31T12:40:57;11.55;;;2.88;;
60908;SDS011;46780;48.128;-1.704;2023-08-31T12:43:23;8.27;;;2.90;;
60908;SDS011;46780;48.128;-1.704;2023-08-31T12:45:51;7.97;;;2.97;;
60908;SDS011;46780;48.128;-1.704;2023-08-31T12:48:17;9.07;;;2.90;;
60908;SDS011;46780;48.128;-1.704;2023-08-31T12:50:44;8.68;;;3.15;;
60908;SDS011;46780;48.128;-1.704;2023-08-31T12:53:10;6.25;;;2.70;;
60908;SDS011;46780;48.128;-1.704;2023-08-31T12:55:37;8.05;;;2.70;;
60908;SDS011;46780;48.128;-1.704;2023-08-31T12:58:03;9.32;;;2.92;;
60908;SDS011;46780;48.128;-1.704;2023-08-31T13:00:30;7.30;;;2.83;;
60908;SDS011;46780;48.128;-1.704;2023-08-31T13:02:58;9.52;;;3.05;;
60908;SDS011;46780;48.128;-1.704;2023-08-31T13:05:24;9.85;;;3.03;;
60908;SDS011;46780;48.128;-1.704;2023-08-31T13:07:50;8.55;;;2.92;;
60908;SDS011;46780;48.128;-1.704;2023-08-31T13:10:17;7.45;;;2.80;;
60908;SDS011;46780;48.128;-1.704;2023-08-31T13:12:43;10.98;;;3.33;;
60908;SDS011;46780;48.128;-1.704;2023-08-31T13:15:10;10.30;;;3.10;;
60908;SDS011;46780;48.128;-1.704;2023-08-31T13:17:36;9.98;;;3.20;;
60908;SDS011;46780;48.128;-1.704;2023-08-31T13:20:05;10.45;;;3.00;;
60908;SDS011;46780;48.128;-1.704;2023-08-31T13:22:32;7.28;;;3.00;;
60908;SDS011;46780;48.128;-1.704;2023-08-31T13:24:58;9.55;;;3.08;;
60908;SDS011;46780;48.128;-1.704;2023-08-31T13:27:25;8.85;;;3.08;;
60908;SDS011;46780;48.128;-1.704;2023-08-31T13:29:51;9.52;;;3.15;;
60908;SDS011;46780;48.128;-1.704;2023-08-31T13:32:18;10.75;;;2.92;;
60908;SDS011;46780;48.128;-1.704;2023-08-31T13:34:44;8.90;;;2.85;;
60908;SDS011;46780;48.128;-1.704;2023-08-31T13:37:12;9.15;;;3.00;;
60908;SDS011;46780;48.128;-1.704;2023-08-31T13:39:38;15.10;;;3.25;;
60908;SDS011;46780;48.128;-1.704;2023-08-31T13:42:05;12.13;;;3.28;;
60908;SDS011;46780;48.128;-1.704;2023-08-31T13:44:31;10.43;;;3.10;;
60908;SDS011;46780;48.128;-1.704;2023-08-31T13:46:58;9.90;;;2.80;;
60908;SDS011;46780;48.128;-1.704;2023-08-31T13:49:24;7.97;;;2.42;;
60908;SDS011;46780;48.128;-1.704;2023-08-31T13:51:51;6.05;;;2.38;;
60908;SDS011;46780;48.128;-1.704;2023-08-31T13:54:19;9.27;;;2.83;;
60908;SDS011;46780;48.128;-1.704;2023-08-31T13:56:45;10.45;;;2.50;;
60908;SDS011;46780;48.128;-1.704;2023-08-31T13:59:11;7.88;;;2.72;;
60908;SDS011;46780;48.128;-1.704;2023-08-31T14:01:38;8.73;;;2.38;;
60908;SDS011;46780;48.128;-1.704;2023-08-31T14:04:05;9.07;;;2.28;;
60908;SDS011;46780;48.128;-1.704;2023-08-31T14:06:31;9.85;;;2.50;;
60908;SDS011;46780;48.128;-1.704;2023-08-31T14:08:58;11.02;;;2.30;;
60908;SDS011;46780;48.128;-1.704;2023-08-31T14:11:27;9.60;;;2.53;;
60908;SDS011;46780;48.128;-1.704;2023-08-31T14:14:00;10.00;;;2.63;;
60908;SDS011;46780;48.128;-1.704;2023-08-31T14:16:28;7.78;;;1.70;;
60908;SDS011;46780;48.128;-1.704;2023-08-31T14:18:54;9.20;;;2.10;;
60908;SDS011;46780;48.128;-1.704;2023-08-31T14:21:21;5.68;;;1.60;;
60908;SDS011;46780;48.128;-1.704;2023-08-31T14:23:47;6.22;;;1.80;;
60908;SDS011;46780;48.128;-1.704;2023-08-31T14:26:14;6.95;;;1.70;;
60908;SDS011;46780;48.128;-1.704;2023-08-31T14:28:42;6.90;;;1.70;;
60908;SDS011;46780;48.128;-1.704;2023-08-31T14:31:08;10.00;;;1.75;;
60908;SDS011;46780;48.128;-1.704;2023-08-31T14:33:35;3.60;;;1.30;;
60908;SDS011;46780;48.128;-1.704;2023-08-31T14:36:02;6.22;;;1.50;;
60908;SDS011;46780;48.128;-1.704;2023-08-31T14:38:29;4.68;;;1.33;;
60908;SDS011;46780;48.128;-1.704;2023-08-31T14:40:55;3.70;;;1.40;;